createdAt,value
2022-09-04T00:01:59.942Z,63.90
2022-09-04T00:04:23.491Z,63.97
2022-09-04T00:06:32.569Z,63.62
2022-09-04T00:08:57.160Z,62.95
2022-09-04T00:11:11.136Z,63.85
2022-09-04T00:13:36.935Z,63.92
2022-09-04T00:15:44.425Z,63.40
2022-09-04T00:17:58.683Z,63.63
2022-09-04T00:20:06.776Z,63.51
2022-09-04T00:22:34.203Z,64.47
2022-09-04T00:24:45.410Z,64.56
2022-09-04T00:26:56.528Z,64.55
2022-09-04T00:29:27.180Z,64.43
2022-09-04T00:32:12.842Z,64.15
2022-09-04T00:34:47.093Z,64.02
2022-09-04T00:36:54.749Z,63.48
2022-09-04T00:39:13.842Z,62.81
2022-09-04T00:41:31.249Z,62.51
2022-09-04T00:44:06.927Z,62.99
2022-09-04T00:46:27.323Z,62.84
2022-09-04T00:48:59.690Z,62.93
2022-09-04T00:51:32.466Z,62.66
2022-09-04T00:54:12.065Z,62.58
2022-09-04T00:56:27.121Z,63.13
2022-09-04T00:58:31.977Z,63.33
2022-09-04T01:00:37.250Z,63.08
2022-09-04T01:03:00.664Z,63.59
2022-09-04T01:05:19.597Z,63.42
2022-09-04T01:07:59.459Z,63.63
2022-09-04T01:10:10.447Z,63.06
2022-09-04T01:12:37.359Z,62.96
2022-09-04T01:14:49.136Z,62.58
2022-09-04T01:17:23.829Z,62.90
2022-09-04T01:19:47.500Z,62.55
2022-09-04T01:22:09.919Z,62.65
2022-09-04T01:24:33.921Z,62.26
2022-09-04T01:26:56.761Z,61.92
2022-09-04T01:29:17.041Z,62.88
2022-09-04T01:31:37.784Z,62.97
2022-09-04T01:33:55.056Z,63.13
2022-09-04T01:36:10.987Z,63.39
2022-09-04T01:38:38.056Z,63.87
2022-09-04T01:40:43.605Z,63.31
2022-09-04T01:42:55.192Z,64.02
2022-09-04T01:44:57.588Z,63.45
2022-09-04T01:47:08.748Z,63.20
2022-09-04T01:49:31.319Z,63.32
2022-09-04T01:51:54.674Z,63.02
2022-09-04T01:54:04.371Z,63.20
2022-09-04T01:56:20.076Z,63.54
2022-09-04T01:58:40.610Z,63.52
2022-09-04T02:00:55.488Z,63.95
2022-09-04T02:03:22.789Z,64.47
2022-09-04T02:05:24.797Z,64.28
2022-09-04T02:07:36.866Z,64.89
2022-09-04T02:10:08.596Z,64.78
2022-09-04T02:12:52.624Z,64.47
2022-09-04T02:15:04.390Z,64.27
2022-09-04T02:17:34.420Z,64.00
2022-09-04T02:20:07.551Z,63.91
2022-09-04T02:22:46.894Z,63.94
2022-09-04T02:25:15.436Z,63.64
2022-09-04T02:27:32.099Z,63.56
2022-09-04T02:29:48.853Z,63.61
2022-09-04T02:31:55.384Z,63.78
2022-09-04T02:34:13.774Z,63.10
2022-09-04T02:36:28.601Z,63.25
2022-09-04T02:38:57.488Z,63.46
2022-09-04T02:41:05.256Z,63.79
2022-09-04T02:43:27.939Z,63.58
2022-09-04T02:45:37.703Z,63.54
2022-09-04T02:47:46.156Z,63.32
2022-09-04T02:49:59.848Z,63.41
2022-09-04T02:52:13.628Z,63.44
2022-09-04T02:54:34.252Z,64.28
2022-09-04T02:56:57.481Z,63.97
2022-09-04T02:59:14.032Z,63.87
2022-09-04T03:01:52.109Z,64.25
2022-09-04T03:04:24.555Z,64.30
2022-09-04T03:06:54.202Z,63.86
2022-09-04T03:09:04.684Z,63.97
2022-09-04T03:11:24.203Z,64.11
2022-09-04T03:13:47.765Z,63.98
2022-09-04T03:16:04.285Z,63.58
2022-09-04T03:18:20.624Z,63.91
2022-09-04T03:20:31.723Z,63.87
2022-09-04T03:22:43.138Z,63.53
2022-09-04T03:25:22.444Z,63.12
2022-09-04T03:27:26.944Z,63.32
2022-09-04T03:30:06.371Z,63.03
2022-09-04T03:32:18.855Z,63.13
2022-09-04T03:34:52.496Z,63.10
2022-09-04T03:37:20.904Z,63.02
2022-09-04T03:39:31.081Z,63.10
2022-09-04T03:41:58.109Z,62.77
2022-09-04T03:44:13.518Z,62.77
2022-09-04T03:46:33.263Z,63.04
2022-09-04T03:49:02.305Z,63.59
2022-09-04T03:51:16.651Z,63.78
2022-09-04T03:53:39.099Z,63.86
2022-09-04T03:56:08.700Z,64.01
2022-09-04T03:58:19.615Z,64.00
2022-09-04T04:00:22.756Z,63.71
2022-09-04T04:02:50.917Z,64.54
2022-09-04T04:05:22.313Z,63.87
2022-09-04T04:07:41.354Z,63.80
2022-09-04T04:09:52.156Z,63.34
2022-09-04T04:12:05.256Z,63.67
2022-09-04T04:14:19.435Z,63.21
2022-09-04T04:16:40.792Z,63.21
2022-09-04T04:19:07.182Z,63.67
2022-09-04T04:21:27.968Z,63.25
2022-09-04T04:23:47.960Z,63.99
2022-09-04T04:26:44.762Z,63.91
2022-09-04T04:29:09.695Z,63.46
2022-09-04T04:31:34.848Z,64.22
2022-09-04T04:34:06.391Z,64.05
2022-09-04T04:36:49.805Z,64.03
2022-09-04T04:39:23.335Z,64.70
2022-09-04T04:42:05.996Z,64.14
2022-09-04T04:44:16.938Z,64.31
2022-09-04T04:46:27.832Z,64.57
2022-09-04T04:48:54.622Z,65.15
2022-09-04T04:51:42.897Z,64.59
2022-09-04T04:53:57.511Z,64.24
2022-09-04T04:56:15.363Z,64.09
2022-09-04T04:58:28.660Z,64.13
2022-09-04T05:00:46.876Z,63.83
2022-09-04T05:02:52.162Z,63.42
2022-09-04T05:04:54.817Z,63.75
2022-09-04T05:07:06.838Z,63.89
2022-09-04T05:09:15.537Z,63.56
2022-09-04T05:11:26.970Z,63.84
2022-09-04T05:13:52.727Z,63.86
2022-09-04T05:16:09.423Z,63.55
2022-09-04T05:18:20.963Z,63.89
2022-09-04T05:20:52.083Z,63.69
2022-09-04T05:23:17.116Z,63.90
2022-09-04T05:25:22.154Z,63.68
2022-09-04T05:27:24.155Z,63.59
2022-09-04T05:29:55.356Z,63.86
2022-09-04T05:32:10.548Z,63.42
2022-09-04T05:34:19.145Z,63.32
2022-09-04T05:36:40.671Z,63.20
2022-09-04T05:38:54.348Z,63.36
2022-09-04T05:41:07.887Z,62.72
2022-09-04T05:43:28.020Z,62.10
2022-09-04T05:45:50.173Z,61.75
2022-09-04T05:48:09.801Z,61.59
2022-09-04T05:50:31.855Z,61.51
2022-09-04T05:52:39.927Z,62.29
2022-09-04T05:54:54.056Z,62.10
2022-09-04T05:57:25.961Z,61.61
2022-09-04T05:59:47.152Z,61.52
2022-09-04T06:01:59.178Z,62.26
2022-09-04T06:04:49.832Z,61.13
2022-09-04T06:07:13.521Z,61.22
2022-09-04T06:09:50.646Z,61.03
2022-09-04T06:12:18.824Z,61.02
2022-09-04T06:14:33.584Z,60.27
2022-09-04T06:17:14.393Z,59.98
2022-09-04T06:19:25.432Z,60.07
2022-09-04T06:22:06.927Z,59.77
2022-09-04T06:24:36.960Z,59.24
2022-09-04T06:27:34.822Z,58.97
2022-09-04T06:30:03.227Z,58.48
2022-09-04T06:32:31.744Z,58.31
2022-09-04T06:35:14.590Z,58.03
2022-09-04T06:37:45.724Z,57.90
2022-09-04T06:40:07.678Z,57.78
2022-09-04T06:42:13.819Z,57.19
2022-09-04T06:44:40.154Z,56.95
2022-09-04T06:46:44.964Z,56.33
2022-09-04T06:48:47.008Z,57.05
2022-09-04T06:50:52.159Z,55.38
2022-09-04T06:53:09.574Z,54.18
2022-09-04T06:55:29.375Z,55.46
2022-09-04T06:57:50.023Z,54.80
2022-09-04T06:59:55.229Z,55.25
2022-09-04T07:02:37.601Z,53.57
2022-09-04T07:04:59.672Z,53.89
2022-09-04T07:07:27.704Z,53.31
2022-09-04T07:09:38.648Z,53.64
2022-09-04T07:11:43.457Z,53.93
2022-09-04T07:13:50.011Z,53.39
2022-09-04T07:16:20.803Z,53.45
2022-09-04T07:18:32.174Z,52.74
2022-09-04T07:20:52.435Z,53.01
2022-09-04T07:23:16.950Z,53.37
2022-09-04T07:25:27.670Z,52.56
2022-09-04T07:28:00.966Z,50.92
2022-09-04T07:30:09.625Z,50.31
2022-09-04T07:32:34.400Z,49.76
2022-09-04T07:34:57.786Z,49.61
2022-09-04T07:37:23.538Z,49.74
2022-09-04T07:39:36.853Z,50.90
2022-09-04T07:42:09.982Z,50.69
2022-09-04T07:45:02.701Z,49.42
2022-09-04T07:47:14.401Z,50.58
2022-09-04T07:49:35.563Z,50.11
2022-09-04T07:51:54.676Z,50.01
2022-09-04T07:54:14.619Z,49.85
2022-09-04T07:57:00.326Z,50.29
2022-09-04T07:59:31.083Z,51.15
2022-09-04T08:01:45.336Z,50.89
2022-09-04T08:04:03.203Z,50.97
2022-09-04T08:06:23.860Z,50.11
2022-09-04T08:09:23.125Z,50.28
2022-09-04T08:11:37.340Z,49.87
2022-09-04T08:13:42.056Z,50.71
2022-09-04T08:16:11.905Z,49.46
2022-09-04T08:18:42.206Z,47.96
2022-09-04T08:20:49.364Z,49.23
2022-09-04T08:23:00.462Z,46.83
2022-09-04T08:25:29.628Z,46.67
2022-09-04T08:28:04.032Z,46.95
2022-09-04T08:30:08.622Z,46.21
2022-09-04T08:32:43.006Z,46.61
2022-09-04T08:34:48.106Z,46.07
2022-09-04T08:36:54.078Z,46.61
2022-09-04T08:39:12.051Z,46.54
2022-09-04T08:41:48.450Z,45.63
2022-09-04T08:44:16.622Z,45.05
2022-09-04T08:46:31.865Z,45.32
2022-09-04T08:48:49.123Z,47.62
2022-09-04T08:51:10.089Z,46.50
2022-09-04T08:53:18.955Z,47.56
2022-09-04T08:55:49.286Z,45.89
2022-09-04T08:58:06.261Z,46.96
2022-09-04T09:00:17.453Z,46.38
2022-09-04T09:02:28.434Z,46.16
2022-09-04T09:04:47.961Z,46.11
2022-09-04T09:07:02.203Z,45.50
2022-09-04T09:09:19.683Z,45.75
2022-09-04T09:11:21.810Z,46.86
2022-09-04T09:13:42.799Z,46.90
2022-09-04T09:15:56.893Z,45.70
2022-09-04T09:18:16.491Z,45.79
2022-09-04T09:20:29.177Z,44.92
2022-09-04T09:22:40.895Z,44.37
2022-09-04T09:24:58.156Z,45.94
2022-09-04T09:27:03.174Z,45.36
2022-09-04T09:29:33.549Z,45.22
2022-09-04T09:31:52.920Z,45.93
2022-09-04T09:34:32.196Z,45.41
2022-09-04T09:37:02.997Z,44.55
2022-09-04T09:39:29.407Z,43.19
2022-09-04T09:42:15.381Z,44.38
2022-09-04T09:44:35.834Z,43.19
2022-09-04T09:46:56.137Z,42.45
2022-09-04T09:49:13.898Z,42.85
2022-09-04T09:52:01.009Z,43.56
2022-09-04T09:54:13.489Z,43.90
2022-09-04T09:56:40.957Z,44.23
2022-09-04T09:58:49.514Z,43.93
2022-09-04T10:01:08.582Z,43.30
2022-09-04T10:03:32.606Z,44.20
2022-09-04T10:05:59.481Z,42.90
2022-09-04T10:08:23.345Z,42.30
2022-09-04T10:10:54.301Z,41.17
2022-09-04T10:13:11.420Z,42.76
2022-09-04T10:15:46.677Z,41.10
2022-09-04T10:18:23.417Z,43.45
2022-09-04T10:21:01.804Z,42.53
2022-09-04T10:23:10.026Z,40.21
2022-09-04T10:25:43.123Z,41.34
2022-09-04T10:28:06.696Z,41.63
2022-09-04T10:30:19.330Z,42.75
2022-09-04T10:32:33.730Z,42.20
2022-09-04T10:34:46.652Z,42.50
2022-09-04T10:37:10.933Z,43.44
2022-09-04T10:40:02.744Z,42.16
2022-09-04T10:42:26.297Z,42.12
2022-09-04T10:44:31.119Z,43.20
2022-09-04T10:47:09.645Z,41.70
2022-09-04T10:49:30.578Z,42.48
2022-09-04T10:52:09.254Z,41.98
2022-09-04T10:54:26.634Z,42.42
2022-09-04T10:56:50.115Z,42.94
2022-09-04T10:59:09.948Z,41.54
2022-09-04T11:01:32.555Z,42.73
2022-09-04T11:03:44.404Z,43.08
2022-09-04T11:06:12.245Z,42.61
2022-09-04T11:08:23.671Z,43.31
2022-09-04T11:10:37.146Z,43.48
2022-09-04T11:13:04.136Z,43.08
2022-09-04T11:15:27.481Z,41.64
2022-09-04T11:17:42.826Z,40.85
2022-09-04T11:20:18.512Z,40.61
2022-09-04T11:23:10.018Z,39.84
2022-09-04T11:25:32.195Z,39.24
2022-09-04T11:27:59.732Z,40.58
2022-09-04T11:30:16.896Z,39.81
2022-09-04T11:32:36.677Z,40.28
2022-09-04T11:34:52.135Z,39.87
2022-09-04T11:37:29.318Z,40.73
2022-09-04T11:39:39.289Z,41.06
2022-09-04T11:41:59.707Z,41.70
2022-09-04T11:44:22.303Z,41.38
2022-09-04T11:46:30.283Z,41.98
2022-09-04T11:48:57.634Z,41.19
2022-09-04T11:51:40.603Z,40.70
2022-09-04T11:54:21.114Z,41.54
2022-09-04T11:56:34.816Z,41.51
2022-09-04T11:58:52.272Z,40.86
2022-09-04T12:01:16.435Z,41.15
2022-09-04T12:03:42.338Z,40.48
2022-09-04T12:05:50.815Z,41.48
2022-09-04T12:08:11.329Z,39.88
2022-09-04T12:10:33.332Z,40.98
2022-09-04T12:13:15.243Z,39.71
2022-09-04T12:15:23.310Z,40.84
2022-09-04T12:17:56.539Z,40.64
2022-09-04T12:20:14.964Z,39.27
2022-09-04T12:22:52.790Z,38.68
2022-09-04T12:25:03.706Z,39.98
2022-09-04T12:27:11.477Z,40.06
2022-09-04T12:29:13.314Z,40.42
2022-09-04T12:31:47.051Z,40.71
2022-09-04T12:34:18.486Z,40.15
2022-09-04T12:36:42.338Z,39.00
2022-09-04T12:39:01.468Z,38.97
2022-09-04T12:41:03.368Z,38.56
2022-09-04T12:43:52.399Z,39.15
2022-09-04T12:46:22.035Z,38.73
2022-09-04T12:48:42.907Z,38.43
2022-09-04T12:51:01.014Z,38.88
2022-09-04T12:53:59.612Z,37.99
2022-09-04T12:56:45.921Z,38.07
2022-09-04T12:59:17.974Z,38.79
2022-09-04T13:01:32.176Z,38.83
2022-09-04T13:04:01.507Z,38.79
2022-09-04T13:06:25.889Z,38.85
2022-09-04T13:09:00.145Z,38.79
2022-09-04T13:11:29.511Z,38.30
2022-09-04T13:13:50.178Z,38.60
2022-09-04T13:16:04.444Z,39.10
2022-09-04T13:18:58.765Z,38.10
2022-09-04T13:21:28.188Z,39.14
2022-09-04T13:23:37.008Z,39.23
2022-09-04T13:25:59.067Z,38.28
2022-09-04T13:28:07.276Z,38.10
2022-09-04T13:30:21.933Z,38.15
2022-09-04T13:32:45.705Z,37.45
2022-09-04T13:34:58.748Z,37.91
2022-09-04T13:37:13.886Z,37.32
2022-09-04T13:39:39.815Z,37.84
2022-09-04T13:42:21.006Z,37.43
2022-09-04T13:44:38.627Z,36.63
2022-09-04T13:46:53.832Z,36.94
2022-09-04T13:49:04.990Z,37.36
2022-09-04T13:51:30.048Z,37.16
2022-09-04T13:54:10.370Z,37.74
2022-09-04T13:56:28.623Z,37.29
2022-09-04T13:58:35.303Z,37.31
2022-09-04T14:00:46.072Z,37.98
2022-09-04T14:02:55.952Z,37.95
2022-09-04T14:05:06.149Z,37.55
2022-09-04T14:07:22.675Z,37.24
2022-09-04T14:09:24.884Z,38.03
2022-09-04T14:11:37.545Z,37.34
2022-09-04T14:13:58.465Z,36.66
2022-09-04T14:16:09.173Z,36.77
2022-09-04T14:18:45.646Z,36.88
2022-09-04T14:21:01.317Z,36.49
2022-09-04T14:23:20.497Z,37.05
2022-09-04T14:25:42.590Z,37.69
2022-09-04T14:28:13.398Z,38.33
2022-09-04T14:30:18.834Z,37.58
2022-09-04T14:32:32.976Z,36.75
2022-09-04T14:35:22.967Z,37.49
2022-09-04T14:37:59.491Z,37.50
2022-09-04T14:40:13.685Z,37.98
2022-09-04T14:42:41.755Z,37.59
2022-09-04T14:45:02.675Z,38.43
2022-09-04T14:47:09.845Z,38.09
2022-09-04T14:49:17.372Z,38.19
2022-09-04T14:51:22.455Z,38.33
2022-09-04T14:53:32.198Z,38.32
2022-09-04T14:55:42.735Z,37.16
2022-09-04T14:57:47.638Z,37.97
2022-09-04T15:00:10.523Z,37.48
2022-09-04T15:02:12.557Z,38.13
2022-09-04T15:04:30.558Z,37.69
2022-09-04T15:07:09.846Z,37.96
2022-09-04T15:09:29.332Z,37.90
2022-09-04T15:11:37.642Z,38.29
2022-09-04T15:13:53.601Z,38.06
2022-09-04T15:16:28.611Z,38.55
2022-09-04T15:18:39.293Z,38.20
2022-09-04T15:21:06.751Z,37.21
2022-09-04T15:23:22.561Z,37.69
2022-09-04T15:25:57.651Z,37.58
2022-09-04T15:28:05.534Z,37.94
2022-09-04T15:30:21.973Z,38.13
2022-09-04T15:32:28.283Z,38.08
2022-09-04T15:34:32.177Z,38.24
2022-09-04T15:36:39.416Z,38.34
2022-09-04T15:38:50.870Z,38.24
2022-09-04T15:41:15.780Z,38.60
2022-09-04T15:43:17.884Z,38.71
2022-09-04T15:45:24.484Z,39.04
2022-09-04T15:47:38.680Z,39.01
2022-09-04T15:49:49.234Z,39.48
2022-09-04T15:52:24.467Z,39.30
2022-09-04T15:54:55.301Z,39.76
2022-09-04T15:57:43.118Z,39.90
2022-09-04T15:59:55.093Z,39.51
2022-09-04T16:02:12.884Z,39.41
2022-09-04T16:04:45.634Z,39.24
2022-09-04T16:06:54.695Z,39.59
2022-09-04T16:09:07.329Z,39.77
2022-09-04T16:11:22.074Z,39.92
2022-09-04T16:13:27.273Z,39.87
2022-09-04T16:15:35.659Z,39.39
2022-09-04T16:17:47.471Z,39.49
2022-09-04T16:20:20.392Z,39.33
2022-09-04T16:22:36.556Z,39.05
2022-09-04T16:24:47.436Z,39.59
2022-09-04T16:26:53.352Z,39.71
2022-09-04T16:29:03.708Z,39.11
2022-09-04T16:31:14.739Z,39.37
2022-09-04T16:33:35.321Z,39.82
2022-09-04T16:35:45.113Z,40.70
2022-09-04T16:38:10.981Z,40.39
2022-09-04T16:40:22.759Z,40.91
2022-09-04T16:42:31.034Z,41.76
2022-09-04T16:44:39.939Z,41.28
2022-09-04T16:47:06.119Z,41.13
2022-09-04T16:49:19.778Z,40.80
2022-09-04T16:51:39.656Z,41.17
2022-09-04T16:54:10.135Z,42.43
2022-09-04T16:56:37.904Z,40.66
2022-09-04T16:59:09.740Z,40.71
2022-09-04T17:01:16.641Z,41.25
2022-09-04T17:03:25.164Z,42.02
2022-09-04T17:05:38.593Z,41.53
2022-09-04T17:07:49.872Z,41.23
2022-09-04T17:10:15.283Z,41.00
2022-09-04T17:12:48.298Z,42.16
2022-09-04T17:14:53.828Z,41.61
2022-09-04T17:17:30.696Z,41.78
2022-09-04T17:19:34.257Z,42.09
2022-09-04T17:29:03.186Z,42.16
2022-09-04T17:29:08.971Z,43.18
2022-09-04T17:29:10.933Z,42.99
2022-09-04T17:30:33.747Z,42.42
2022-09-04T17:37:31.557Z,42.52
2022-09-04T17:40:33.802Z,42.99
2022-09-04T17:40:50.562Z,42.95
2022-09-04T17:41:40.012Z,42.73
2022-09-04T17:43:58.771Z,42.84
2022-09-04T17:46:17.269Z,43.49
2022-09-04T17:48:27.797Z,43.58
2022-09-04T17:50:30.267Z,42.61
2022-09-04T17:52:36.991Z,42.67
2022-09-04T17:54:49.418Z,43.23
2022-09-04T17:56:59.566Z,43.97
2022-09-04T17:59:09.505Z,43.84
2022-09-04T18:01:53.682Z,44.66
2022-09-04T18:04:21.540Z,43.96
2022-09-04T18:06:28.635Z,44.04
2022-09-04T18:08:50.358Z,44.25
2022-09-04T18:10:54.581Z,43.77
2022-09-04T18:13:37.157Z,44.90
2022-09-04T18:15:52.297Z,44.83
2022-09-04T18:17:59.741Z,44.56
2022-09-04T18:20:14.478Z,44.82
2022-09-04T18:22:31.925Z,44.07
2022-09-04T18:24:43.971Z,44.20
2022-09-04T18:26:46.961Z,44.35
2022-09-04T18:29:14.058Z,44.24
2022-09-04T18:34:36.398Z,44.32
2022-09-04T18:37:12.806Z,44.59
2022-09-04T18:37:44.979Z,44.25
2022-09-04T18:39:51.993Z,44.35
2022-09-04T18:47:50.560Z,44.13
2022-09-04T18:50:38.907Z,44.88
2022-09-04T18:50:38.908Z,44.11
2022-09-04T18:50:51.444Z,44.25
2022-09-04T18:52:30.041Z,45.20
2022-09-04T18:54:44.024Z,45.19
2022-09-04T18:56:53.187Z,44.98
2022-09-04T18:59:06.101Z,44.59
2022-09-04T19:01:16.977Z,45.00
2022-09-04T19:03:37.858Z,45.90
2022-09-04T19:05:45.481Z,45.82
2022-09-04T19:08:00.019Z,45.62
2022-09-04T19:10:11.935Z,46.39
2022-09-04T19:12:20.595Z,45.44
2022-09-04T19:14:27.092Z,45.40
2022-09-04T19:17:08.128Z,45.44
2022-09-04T19:19:18.248Z,45.85
2022-09-04T19:21:31.755Z,45.26
2022-09-04T19:24:02.554Z,45.38
2022-09-04T19:26:47.559Z,45.86
2022-09-04T19:29:22.467Z,45.96
2022-09-04T19:31:37.474Z,46.60
2022-09-04T19:33:49.054Z,46.87
2022-09-04T19:36:11.041Z,46.71
2022-09-04T19:42:50.902Z,47.58
2022-09-04T19:46:01.270Z,46.18
2022-09-04T19:46:15.862Z,46.77
2022-09-04T19:47:03.694Z,46.98
2022-09-04T19:51:13.482Z,46.47
2022-09-04T19:53:35.805Z,47.02
2022-09-04T19:54:11.105Z,46.65
2022-09-04T19:56:28.503Z,47.13
2022-09-04T19:58:44.179Z,46.51
2022-09-04T20:00:54.835Z,46.89
2022-09-04T20:03:05.602Z,46.74
2022-09-04T20:05:32.810Z,47.78
2022-09-04T20:07:48.848Z,47.00
2022-09-04T20:09:55.429Z,47.03
2022-09-04T20:12:10.772Z,47.65
2022-09-04T20:14:22.072Z,47.70
2022-09-04T20:16:47.723Z,48.11
2022-09-04T20:18:56.847Z,48.25
2022-09-04T20:21:26.956Z,47.75
2022-09-04T20:24:01.807Z,48.23
2022-09-04T20:26:28.916Z,48.29
2022-09-04T20:28:47.811Z,48.25
2022-09-04T20:31:35.845Z,48.93
2022-09-04T20:33:44.275Z,48.68
2022-09-04T20:35:55.437Z,48.84
2022-09-04T20:38:12.262Z,49.02
2022-09-04T20:40:44.452Z,49.20
2022-09-04T20:43:05.393Z,49.17
2022-09-04T20:48:12.631Z,49.40
2022-09-04T20:52:42.204Z,48.78
2022-09-04T20:52:56.706Z,48.45
2022-09-04T20:53:28.351Z,48.44
2022-09-04T20:55:57.047Z,48.20
2022-09-04T21:03:07.737Z,49.56
2022-09-04T21:03:19.487Z,49.80
2022-09-04T21:03:34.973Z,49.39
2022-09-04T21:06:07.978Z,49.84
2022-09-04T21:08:48.541Z,49.64
2022-09-04T21:10:59.632Z,49.89
2022-09-04T21:13:21.415Z,50.53
2022-09-04T21:15:29.048Z,49.97
2022-09-04T21:17:49.679Z,50.73
2022-09-04T21:20:25.734Z,50.33
2022-09-04T21:22:39.440Z,49.76
2022-09-04T21:24:41.680Z,50.16
2022-09-04T21:27:11.067Z,51.46
2022-09-04T21:29:34.594Z,50.70
2022-09-04T21:31:58.507Z,51.17
2022-09-04T21:34:19.002Z,50.42
2022-09-04T21:37:01.318Z,50.98
2022-09-04T21:39:31.342Z,51.50
2022-09-04T21:41:45.799Z,51.08
2022-09-04T21:44:25.141Z,51.12
2022-09-04T21:46:46.411Z,51.92
2022-09-04T21:49:26.610Z,52.53
2022-09-04T21:51:40.925Z,50.97
2022-09-04T21:54:01.541Z,50.86
2022-09-04T22:02:25.467Z,51.78
2022-09-04T22:02:32.420Z,51.76
2022-09-04T22:02:44.809Z,51.89
2022-09-04T22:04:44.446Z,51.60
2022-09-04T22:11:31.397Z,52.08
2022-09-04T22:13:40.449Z,51.24
2022-09-04T22:13:43.609Z,51.99
2022-09-04T22:15:16.592Z,51.25
2022-09-04T22:18:00.730Z,52.40
2022-09-04T22:20:43.082Z,51.97
2022-09-04T22:23:06.701Z,51.95
2022-09-04T22:25:57.096Z,51.57
2022-09-04T22:28:43.517Z,51.88
2022-09-04T22:31:29.705Z,51.89
2022-09-04T22:34:15.040Z,51.76
2022-09-04T22:36:41.512Z,51.96
2022-09-04T22:39:08.226Z,52.10
2022-09-04T22:41:41.947Z,52.26
2022-09-04T22:44:02.445Z,52.50
2022-09-04T22:46:31.242Z,52.36
2022-09-04T22:49:13.281Z,53.16
2022-09-04T22:51:46.806Z,52.45
2022-09-04T22:54:03.405Z,52.53
2022-09-04T22:56:24.749Z,52.25
2022-09-04T22:58:51.724Z,53.09
2022-09-04T23:01:21.419Z,52.21
2022-09-04T23:03:45.651Z,52.87
2022-09-04T23:09:06.097Z,52.74
2022-09-04T23:13:48.066Z,52.77
2022-09-04T23:13:49.104Z,53.05
2022-09-04T23:14:45.712Z,53.04
2022-09-04T23:17:09.999Z,53.12
2022-09-04T23:23:00.029Z,52.56
2022-09-04T23:26:39.013Z,52.73
2022-09-04T23:26:43.578Z,53.93
2022-09-04T23:27:29.345Z,53.52
2022-09-04T23:29:49.853Z,53.52
2022-09-04T23:32:07.450Z,53.62
2022-09-04T23:34:29.363Z,53.27
2022-09-04T23:36:52.058Z,54.00
2022-09-04T23:39:16.819Z,53.64
2022-09-04T23:41:52.957Z,54.58
2022-09-04T23:44:25.448Z,54.41
2022-09-04T23:46:46.170Z,54.42
2022-09-04T23:49:19.205Z,54.10
2022-09-04T23:52:05.009Z,54.70
2022-09-04T23:54:12.742Z,53.42
2022-09-04T23:56:35.826Z,54.62
2022-09-04T23:59:19.014Z,53.88
